sensor_id;sensor_type;location;lat;lon;timestamp;pressure;altitude;pressure_sealevel;temperature;humidity
76050;BME280;64967;50.234;19.224;2023-05-10T00:02:08;98676.25;;;7.64;66.96
76050;BME280;64967;50.234;19.224;2023-05-10T00:04:42;98675.59;;;7.62;67.55
76050;BME280;64967;50.234;19.224;2023-05-10T00:07:40;98672.25;;;7.60;67.51
76050;BME280;64967;50.234;19.224;2023-05-10T00:10:29;98667.59;;;7.54;67.71
76050;BME280;64967;50.234;19.224;2023-05-10T00:13:28;98668.78;;;7.51;67.69
76050;BME280;64967;50.234;19.224;2023-05-10T00:16:03;98666.28;;;7.50;67.56
76050;BME280;64967;50.234;19.224;2023-05-10T00:18:30;98620.16;;;7.15;68.27
76050;BME280;64967;50.234;19.224;2023-05-10T00:20:57;98665.66;;;7.40;68.49
76050;BME280;64967;50.234;19.224;2023-05-10T00:23:24;98633.09;;;7.12;68.22
76050;BME280;64967;50.234;19.224;2023-05-10T00:25:50;98642.97;;;7.20;68.81
76050;BME280;64967;50.234;19.224;2023-05-10T00:28:17;98660.41;;;7.24;69.13
76050;BME280;64967;50.234;19.224;2023-05-10T00:30:45;98663.03;;;7.32;68.61
76050;BME280;64967;50.234;19.224;2023-05-10T00:33:12;98665.59;;;7.25;68.43
76050;BME280;64967;50.234;19.224;2023-05-10T00:35:39;98660.06;;;7.27;68.59
76050;BME280;64967;50.234;19.224;2023-05-10T00:38:06;98663.59;;;7.27;68.67
76050;BME280;64967;50.234;19.224;2023-05-10T00:40:35;98656.34;;;7.28;68.90
76050;BME280;64967;50.234;19.224;2023-05-10T00:43:03;98669.50;;;7.23;69.41
76050;BME280;64967;50.234;19.224;2023-05-10T00:45:32;98659.75;;;7.22;69.18
76050;BME280;64967;50.234;19.224;2023-05-10T00:48:01;98654.13;;;7.08;69.86
76050;BME280;64967;50.234;19.224;2023-05-10T00:50:33;98660.16;;;7.10;69.42
76050;BME280;64967;50.234;19.224;2023-05-10T00:53:00;98646.50;;;6.89;70.71
76050;BME280;64967;50.234;19.224;2023-05-10T00:55:30;98652.38;;;6.93;71.51
76050;BME280;64967;50.234;19.224;2023-05-10T00:57:57;98656.19;;;6.98;70.55
76050;BME280;64967;50.234;19.224;2023-05-10T01:00:24;98654.72;;;6.96;71.28
76050;BME280;64967;50.234;19.224;2023-05-10T01:02:53;98634.63;;;6.84;70.33
76050;BME280;64967;50.234;19.224;2023-05-10T01:05:21;98652.41;;;6.85;70.82
76050;BME280;64967;50.234;19.224;2023-05-10T01:07:54;98652.72;;;6.90;70.47
76050;BME280;64967;50.234;19.224;2023-05-10T01:10:36;98646.50;;;6.89;70.61
76050;BME280;64967;50.234;19.224;2023-05-10T01:13:36;98643.38;;;6.78;70.96
76050;BME280;64967;50.234;19.224;2023-05-10T01:16:24;98647.06;;;6.77;71.13
76050;BME280;64967;50.234;19.224;2023-05-10T01:19:26;98643.38;;;6.78;71.22
76050;BME280;64967;50.234;19.224;2023-05-10T01:22:24;98650.59;;;6.77;71.92
76050;BME280;64967;50.234;19.224;2023-05-10T01:31:12;98640.91;;;6.68;71.80
76050;BME280;64967;50.234;19.224;2023-05-10T01:34:02;98632.72;;;6.61;72.80
76050;BME280;64967;50.234;19.224;2023-05-10T01:36:41;98640.59;;;6.63;73.49
76050;BME280;64967;50.234;19.224;2023-05-10T01:44:31;98605.59;;;5.77;78.96
76050;BME280;64967;50.234;19.224;2023-05-10T01:47:14;98631.09;;;5.81;78.59
76050;BME280;64967;50.234;19.224;2023-05-10T01:49:49;98622.91;;;5.50;80.44
76050;BME280;64967;50.234;19.224;2023-05-10T01:52:19;98627.44;;;5.42;81.96
76050;BME280;64967;50.234;19.224;2023-05-10T01:54:53;98620.91;;;5.20;82.69
76050;BME280;64967;50.234;19.224;2023-05-10T01:57:26;98620.75;;;5.13;82.99
76050;BME280;64967;50.234;19.224;2023-05-10T01:59:54;98623.38;;;5.05;83.68
76050;BME280;64967;50.234;19.224;2023-05-10T02:02:24;98617.19;;;4.97;83.58
76050;BME280;64967;50.234;19.224;2023-05-10T02:04:53;98621.03;;;4.94;84.59
76050;BME280;64967;50.234;19.224;2023-05-10T02:07:23;98619.72;;;4.90;85.63
76050;BME280;64967;50.234;19.224;2023-05-10T02:09:51;98622.03;;;4.93;84.25
76050;BME280;64967;50.234;19.224;2023-05-10T02:12:19;98607.31;;;4.89;85.52
76050;BME280;64967;50.234;19.224;2023-05-10T02:14:48;98611.63;;;4.74;85.29
76050;BME280;64967;50.234;19.224;2023-05-10T02:17:17;98605.59;;;4.72;86.18
76050;BME280;64967;50.234;19.224;2023-05-10T02:19:46;98597.56;;;4.72;85.28
76050;BME280;64967;50.234;19.224;2023-05-10T02:22:15;98604.91;;;4.70;85.50
76050;BME280;64967;50.234;19.224;2023-05-10T02:24:43;98601.56;;;4.68;85.72
76050;BME280;64967;50.234;19.224;2023-05-10T02:27:12;98594.69;;;4.65;85.70
76050;BME280;64967;50.234;19.224;2023-05-10T02:29:41;98601.72;;;4.58;86.35
76050;BME280;64967;50.234;19.224;2023-05-10T02:32:10;98599.88;;;4.59;86.82
76050;BME280;64967;50.234;19.224;2023-05-10T02:34:38;98599.84;;;4.50;87.22
76050;BME280;64967;50.234;19.224;2023-05-10T02:37:06;98595.94;;;4.37;88.21
76050;BME280;64967;50.234;19.224;2023-05-10T02:39:34;98598.31;;;4.40;87.42
76050;BME280;64967;50.234;19.224;2023-05-10T02:42:01;98601.72;;;4.16;88.09
76050;BME280;64967;50.234;19.224;2023-05-10T02:44:29;98605.22;;;4.09;89.40
76050;BME280;64967;50.234;19.224;2023-05-10T02:46:57;98600.88;;;4.16;88.58
76050;BME280;64967;50.234;19.224;2023-05-10T02:49:25;98597.22;;;4.17;88.63
76050;BME280;64967;50.234;19.224;2023-05-10T02:51:57;98599.34;;;4.05;89.31
76050;BME280;64967;50.234;19.224;2023-05-10T02:54:30;98605.34;;;4.07;90.13
76050;BME280;64967;50.234;19.224;2023-05-10T02:57:00;98563.50;;;3.90;89.28
76050;BME280;64967;50.234;19.224;2023-05-10T02:59:29;98598.50;;;4.04;90.47
76050;BME280;64967;50.234;19.224;2023-05-10T03:01:59;98603.84;;;4.04;89.77
76050;BME280;64967;50.234;19.224;2023-05-10T03:04:26;98599.34;;;4.05;90.18
76050;BME280;64967;50.234;19.224;2023-05-10T03:06:53;98587.75;;;3.96;89.52
76050;BME280;64967;50.234;19.224;2023-05-10T03:09:21;98604.84;;;4.03;89.53
76050;BME280;64967;50.234;19.224;2023-05-10T03:12:26;98604.84;;;4.03;89.91
76050;BME280;64967;50.234;19.224;2023-05-10T03:18:21;98598.66;;;4.03;89.11
76050;BME280;64967;50.234;19.224;2023-05-10T03:20:51;98599.25;;;3.89;89.48
76050;BME280;64967;50.234;19.224;2023-05-10T03:23:35;98608.91;;;3.82;89.68
76050;BME280;64967;50.234;19.224;2023-05-10T03:26:07;98588.66;;;3.79;90.88
76050;BME280;64967;50.234;19.224;2023-05-10T03:28:35;98600.53;;;3.77;91.87
76050;BME280;64967;50.234;19.224;2023-05-10T03:31:04;98603.75;;;3.88;91.07
76050;BME280;64967;50.234;19.224;2023-05-10T03:33:32;98596.88;;;3.78;91.73
76050;BME280;64967;50.234;19.224;2023-05-10T03:35:59;98598.88;;;3.84;91.71
76050;BME280;64967;50.234;19.224;2023-05-10T03:38:26;98597.94;;;3.93;91.80
76050;BME280;64967;50.234;19.224;2023-05-10T03:40:55;98603.31;;;4.01;90.02
76050;BME280;64967;50.234;19.224;2023-05-10T03:43:22;98601.00;;;4.06;90.20
76050;BME280;64967;50.234;19.224;2023-05-10T03:45:50;98595.03;;;4.12;90.17
76050;BME280;64967;50.234;19.224;2023-05-10T03:48:17;98592.84;;;4.16;90.86
76050;BME280;64967;50.234;19.224;2023-05-10T03:50:44;98594.06;;;4.21;90.59
76050;BME280;64967;50.234;19.224;2023-05-10T03:53:11;98598.56;;;4.21;90.81
76050;BME280;64967;50.234;19.224;2023-05-10T03:55:39;98589.41;;;4.23;91.12
76050;BME280;64967;50.234;19.224;2023-05-10T03:58:06;98599.41;;;4.21;91.92
76050;BME280;64967;50.234;19.224;2023-05-10T04:00:33;98592.59;;;4.27;90.57
76050;BME280;64967;50.234;19.224;2023-05-10T04:03:00;98591.75;;;4.26;90.82
76050;BME280;64967;50.234;19.224;2023-05-10T04:05:27;98597.47;;;4.39;89.95
76050;BME280;64967;50.234;19.224;2023-05-10T04:07:54;98600.69;;;4.51;89.04
76050;BME280;64967;50.234;19.224;2023-05-10T04:10:21;98596.16;;;4.52;88.67
76050;BME280;64967;50.234;19.224;2023-05-10T04:12:48;98586.16;;;4.62;88.79
76050;BME280;64967;50.234;19.224;2023-05-10T04:15:15;98592.56;;;4.77;88.03
76050;BME280;64967;50.234;19.224;2023-05-10T04:17:42;98549.84;;;4.59;88.11
76050;BME280;64967;50.234;19.224;2023-05-10T04:20:10;98599.78;;;4.92;88.26
76050;BME280;64967;50.234;19.224;2023-05-10T04:22:37;98597.94;;;5.01;86.07
76050;BME280;64967;50.234;19.224;2023-05-10T04:25:05;98603.13;;;5.19;85.03
76050;BME280;64967;50.234;19.224;2023-05-10T04:27:32;98585.72;;;5.31;85.55
76050;BME280;64967;50.234;19.224;2023-05-10T04:29:59;98559.09;;;5.21;83.27
76050;BME280;64967;50.234;19.224;2023-05-10T04:32:26;98598.28;;;5.63;83.98
76050;BME280;64967;50.234;19.224;2023-05-10T04:34:54;98597.75;;;5.75;83.18
76050;BME280;64967;50.234;19.224;2023-05-10T04:37:21;98594.47;;;6.12;81.74
76050;BME280;64967;50.234;19.224;2023-05-10T04:39:49;98588.69;;;7.16;79.18
76050;BME280;64967;50.234;19.224;2023-05-10T04:42:16;98589.53;;;8.21;74.23
76050;BME280;64967;50.234;19.224;2023-05-10T04:44:43;98591.56;;;9.20;69.98
76050;BME280;64967;50.234;19.224;2023-05-10T04:47:10;98588.72;;;9.70;66.06
76050;BME280;64967;50.234;19.224;2023-05-10T04:49:39;98590.25;;;10.42;63.60
76050;BME280;64967;50.234;19.224;2023-05-10T04:52:06;98587.22;;;11.25;63.71
76050;BME280;64967;50.234;19.224;2023-05-10T04:54:32;98591.22;;;12.01;60.57
76050;BME280;64967;50.234;19.224;2023-05-10T04:56:59;98592.31;;;12.65;55.00
76050;BME280;64967;50.234;19.224;2023-05-10T04:59:26;98584.81;;;13.05;55.44
76050;BME280;64967;50.234;19.224;2023-05-10T05:01:53;98585.09;;;12.90;54.77
76050;BME280;64967;50.234;19.224;2023-05-10T05:04:20;98586.88;;;12.65;53.59
76050;BME280;64967;50.234;19.224;2023-05-10T05:06:50;98588.91;;;12.76;55.24
76050;BME280;64967;50.234;19.224;2023-05-10T05:09:19;98583.72;;;13.75;53.01
76050;BME280;64967;50.234;19.224;2023-05-10T05:11:46;98556.94;;;14.21;52.37
76050;BME280;64967;50.234;19.224;2023-05-10T05:14:13;98582.16;;;14.53;48.86
76050;BME280;64967;50.234;19.224;2023-05-10T05:16:40;98572.81;;;14.24;48.71
76050;BME280;64967;50.234;19.224;2023-05-10T05:19:07;98572.19;;;14.95;51.59
76050;BME280;64967;50.234;19.224;2023-05-10T05:21:34;98570.34;;;15.37;46.70
76050;BME280;64967;50.234;19.224;2023-05-10T05:24:01;98580.25;;;14.90;47.04
76050;BME280;64967;50.234;19.224;2023-05-10T05:26:28;98574.66;;;14.85;48.60
76050;BME280;64967;50.234;19.224;2023-05-10T05:28:55;98574.59;;;15.22;47.68
76050;BME280;64967;50.234;19.224;2023-05-10T05:31:22;98574.63;;;15.86;46.17
76050;BME280;64967;50.234;19.224;2023-05-10T05:33:49;98566.47;;;16.33;46.29
76050;BME280;64967;50.234;19.224;2023-05-10T05:36:16;98567.88;;;16.70;42.97
76050;BME280;64967;50.234;19.224;2023-05-10T05:38:43;98574.22;;;16.87;44.45
76050;BME280;64967;50.234;19.224;2023-05-10T05:41:10;98574.91;;;16.94;47.98
76050;BME280;64967;50.234;19.224;2023-05-10T05:43:37;98577.75;;;17.00;41.81
76050;BME280;64967;50.234;19.224;2023-05-10T05:46:04;98574.22;;;17.44;41.30
76050;BME280;64967;50.234;19.224;2023-05-10T05:48:31;98569.50;;;17.56;42.54
76050;BME280;64967;50.234;19.224;2023-05-10T05:51:00;98581.06;;;17.58;42.98
76050;BME280;64967;50.234;19.224;2023-05-10T05:53:27;98568.72;;;17.27;42.44
76050;BME280;64967;50.234;19.224;2023-05-10T05:55:55;98571.25;;;17.46;41.00
76050;BME280;64967;50.234;19.224;2023-05-10T05:58:23;98570.16;;;17.92;42.45
76050;BME280;64967;50.234;19.224;2023-05-10T06:00:51;98577.06;;;18.49;41.90
76050;BME280;64967;50.234;19.224;2023-05-10T06:03:21;98578.09;;;18.65;40.15
76050;BME280;64967;50.234;19.224;2023-05-10T06:05:48;98550.69;;;18.82;40.49
76050;BME280;64967;50.234;19.224;2023-05-10T06:08:15;98563.41;;;18.16;40.72
76050;BME280;64967;50.234;19.224;2023-05-10T06:10:42;98569.78;;;16.98;40.17
76050;BME280;64967;50.234;19.224;2023-05-10T06:13:09;98569.53;;;16.36;44.05
76050;BME280;64967;50.234;19.224;2023-05-10T06:15:36;98555.59;;;17.13;41.59
76050;BME280;64967;50.234;19.224;2023-05-10T06:18:03;98562.75;;;17.59;42.46
76050;BME280;64967;50.234;19.224;2023-05-10T06:20:30;98569.63;;;18.11;40.61
76050;BME280;64967;50.234;19.224;2023-05-10T06:22:58;98569.50;;;18.56;39.16
76050;BME280;64967;50.234;19.224;2023-05-10T06:25:25;98568.94;;;18.98;38.03
76050;BME280;64967;50.234;19.224;2023-05-10T06:27:52;98573.16;;;18.84;38.67
76050;BME280;64967;50.234;19.224;2023-05-10T06:30:24;98574.75;;;18.80;38.01
76050;BME280;64967;50.234;19.224;2023-05-10T06:32:55;98570.78;;;19.41;40.49
76050;BME280;64967;50.234;19.224;2023-05-10T06:35:23;98570.47;;;19.91;36.89
76050;BME280;64967;50.234;19.224;2023-05-10T06:37:50;98565.91;;;20.01;36.42
76050;BME280;64967;50.234;19.224;2023-05-10T06:40:18;98571.50;;;19.80;36.50
76050;BME280;64967;50.234;19.224;2023-05-10T06:42:46;98577.44;;;19.18;36.63
76050;BME280;64967;50.234;19.224;2023-05-10T06:45:14;98566.03;;;19.53;37.66
76050;BME280;64967;50.234;19.224;2023-05-10T06:47:42;98566.19;;;19.20;35.85
76050;BME280;64967;50.234;19.224;2023-05-10T06:50:10;98568.47;;;19.28;35.26
76050;BME280;64967;50.234;19.224;2023-05-10T06:52:38;98513.75;;;19.11;37.16
76050;BME280;64967;50.234;19.224;2023-05-10T06:55:05;98566.81;;;19.05;35.11
76050;BME280;64967;50.234;19.224;2023-05-10T06:57:32;98568.44;;;19.23;36.32
76050;BME280;64967;50.234;19.224;2023-05-10T06:59:59;98562.06;;;18.35;38.35
76050;BME280;64967;50.234;19.224;2023-05-10T07:02:27;98563.28;;;18.61;37.49
76050;BME280;64967;50.234;19.224;2023-05-10T07:04:54;98565.78;;;18.84;36.70
76050;BME280;64967;50.234;19.224;2023-05-10T07:07:21;98551.75;;;18.81;36.42
76050;BME280;64967;50.234;19.224;2023-05-10T07:09:48;98550.47;;;18.88;35.19
76050;BME280;64967;50.234;19.224;2023-05-10T07:12:16;98540.66;;;18.92;37.16
76050;BME280;64967;50.234;19.224;2023-05-10T07:14:44;98563.28;;;19.04;36.10
76050;BME280;64967;50.234;19.224;2023-05-10T07:17:11;98546.28;;;19.29;36.10
76050;BME280;64967;50.234;19.224;2023-05-10T07:19:38;98553.19;;;19.58;35.63
76050;BME280;64967;50.234;19.224;2023-05-10T07:22:05;98556.44;;;19.87;37.53
76050;BME280;64967;50.234;19.224;2023-05-10T07:24:32;98555.19;;;19.68;34.66
76050;BME280;64967;50.234;19.224;2023-05-10T07:26:59;98551.63;;;19.68;35.36
76050;BME280;64967;50.234;19.224;2023-05-10T07:29:26;98552.09;;;19.59;35.52
76050;BME280;64967;50.234;19.224;2023-05-10T07:31:54;98555.88;;;19.53;36.08
76050;BME280;64967;50.234;19.224;2023-05-10T07:34:24;98517.06;;;19.13;35.54
76050;BME280;64967;50.234;19.224;2023-05-10T07:36:52;98556.81;;;19.15;38.77
76050;BME280;64967;50.234;19.224;2023-05-10T07:39:19;98546.50;;;19.01;37.05
76050;BME280;64967;50.234;19.224;2023-05-10T07:41:54;98556.19;;;18.87;36.61
76050;BME280;64967;50.234;19.224;2023-05-10T07:44:21;98558.03;;;18.21;37.20
76050;BME280;64967;50.234;19.224;2023-05-10T07:46:49;98557.72;;;18.01;38.23
76050;BME280;64967;50.234;19.224;2023-05-10T07:49:16;98557.13;;;17.99;38.32
76050;BME280;64967;50.234;19.224;2023-05-10T07:51:43;98560.19;;;18.02;38.23
76050;BME280;64967;50.234;19.224;2023-05-10T07:54:10;98553.97;;;18.07;37.40
76050;BME280;64967;50.234;19.224;2023-05-10T07:56:37;98551.25;;;18.07;38.13
76050;BME280;64967;50.234;19.224;2023-05-10T07:59:05;98557.72;;;18.01;37.30
76050;BME280;64967;50.234;19.224;2023-05-10T08:01:35;98541.09;;;18.24;37.90
76050;BME280;64967;50.234;19.224;2023-05-10T08:04:02;98545.41;;;18.37;38.44
76050;BME280;64967;50.234;19.224;2023-05-10T08:06:29;98542.06;;;18.35;36.78
76050;BME280;64967;50.234;19.224;2023-05-10T08:08:57;98545.13;;;18.00;36.82
76050;BME280;64967;50.234;19.224;2023-05-10T08:11:24;98539.09;;;18.36;37.80
76050;BME280;64967;50.234;19.224;2023-05-10T08:13:51;98549.09;;;18.47;36.55
76050;BME280;64967;50.234;19.224;2023-05-10T08:16:19;98546.72;;;18.34;35.33
76050;BME280;64967;50.234;19.224;2023-05-10T08:18:47;98541.91;;;18.24;36.44
76050;BME280;64967;50.234;19.224;2023-05-10T08:21:16;98548.50;;;18.07;37.66
76050;BME280;64967;50.234;19.224;2023-05-10T08:23:43;98542.31;;;17.78;36.78
76050;BME280;64967;50.234;19.224;2023-05-10T08:26:11;98532.19;;;17.95;36.79
76050;BME280;64967;50.234;19.224;2023-05-10T08:28:38;98540.56;;;18.05;36.38
76050;BME280;64967;50.234;19.224;2023-05-10T08:31:05;98523.19;;;17.50;36.19
76050;BME280;64967;50.234;19.224;2023-05-10T08:33:33;98542.47;;;17.71;36.23
76050;BME280;64967;50.234;19.224;2023-05-10T08:36:00;98540.22;;;18.02;37.64
76050;BME280;64967;50.234;19.224;2023-05-10T08:38:27;98539.78;;;18.26;38.10
76050;BME280;64967;50.234;19.224;2023-05-10T08:40:54;98530.94;;;18.58;37.34
76050;BME280;64967;50.234;19.224;2023-05-10T08:43:29;98549.16;;;18.52;37.42
76050;BME280;64967;50.234;19.224;2023-05-10T08:46:00;98548.31;;;18.68;35.79
76050;BME280;64967;50.234;19.224;2023-05-10T08:48:29;98527.94;;;18.59;35.07
76050;BME280;64967;50.234;19.224;2023-05-10T08:50:58;98543.84;;;18.62;36.02
76050;BME280;64967;50.234;19.224;2023-05-10T08:53:28;98538.91;;;18.59;36.12
76050;BME280;64967;50.234;19.224;2023-05-10T08:55:57;98544.06;;;18.78;34.95
76050;BME280;64967;50.234;19.224;2023-05-10T08:58:25;98545.91;;;18.72;36.05
76050;BME280;64967;50.234;19.224;2023-05-10T09:00:52;98547.97;;;18.87;38.77
76050;BME280;64967;50.234;19.224;2023-05-10T09:03:20;98550.16;;;18.63;38.45
76050;BME280;64967;50.234;19.224;2023-05-10T09:05:48;98538.31;;;18.19;36.82
76050;BME280;64967;50.234;19.224;2023-05-10T09:08:16;98543.53;;;18.42;36.18
76050;BME280;64967;50.234;19.224;2023-05-10T09:10:44;98534.06;;;18.50;36.37
76050;BME280;64967;50.234;19.224;2023-05-10T09:13:14;98543.16;;;18.34;36.71
76050;BME280;64967;50.234;19.224;2023-05-10T09:15:43;98536.91;;;18.38;37.04
76050;BME280;64967;50.234;19.224;2023-05-10T09:18:12;98538.69;;;18.66;36.93
76050;BME280;64967;50.234;19.224;2023-05-10T09:20:39;98537.00;;;18.87;36.87
76050;BME280;64967;50.234;19.224;2023-05-10T09:23:07;98524.66;;;18.84;37.27
76050;BME280;64967;50.234;19.224;2023-05-10T09:25:34;98524.59;;;19.28;37.52
76050;BME280;64967;50.234;19.224;2023-05-10T09:28:01;98494.38;;;18.96;37.59
76050;BME280;64967;50.234;19.224;2023-05-10T09:30:30;98533.41;;;19.30;35.66
76050;BME280;64967;50.234;19.224;2023-05-10T09:32:58;98539.25;;;18.90;36.28
76050;BME280;64967;50.234;19.224;2023-05-10T09:35:28;98538.38;;;18.62;37.52
76050;BME280;64967;50.234;19.224;2023-05-10T09:37:58;98537.75;;;18.77;35.22
76050;BME280;64967;50.234;19.224;2023-05-10T09:40:28;98532.25;;;18.99;34.73
76050;BME280;64967;50.234;19.224;2023-05-10T09:43:00;98522.25;;;19.14;35.12
76050;BME280;64967;50.234;19.224;2023-05-10T09:45:31;98525.00;;;19.14;35.73
76050;BME280;64967;50.234;19.224;2023-05-10T09:48:03;98530.81;;;19.18;35.72
76050;BME280;64967;50.234;19.224;2023-05-10T09:50:30;98525.69;;;19.27;35.27
76050;BME280;64967;50.234;19.224;2023-05-10T09:52:59;98519.44;;;19.31;36.60
76050;BME280;64967;50.234;19.224;2023-05-10T09:58:02;98519.59;;;19.46;35.43
76050;BME280;64967;50.234;19.224;2023-05-10T10:00:44;98512.41;;;19.40;35.76
76050;BME280;64967;50.234;19.224;2023-05-10T10:03:16;98502.34;;;19.24;34.50
76050;BME280;64967;50.234;19.224;2023-05-10T10:05:44;98508.41;;;19.26;36.36
76050;BME280;64967;50.234;19.224;2023-05-10T10:08:13;98505.72;;;19.31;35.42
76050;BME280;64967;50.234;19.224;2023-05-10T10:10:41;98478.69;;;19.13;36.04
76050;BME280;64967;50.234;19.224;2023-05-10T10:13:08;98507.84;;;19.51;35.70
76050;BME280;64967;50.234;19.224;2023-05-10T10:15:35;98508.00;;;19.39;33.27
76050;BME280;64967;50.234;19.224;2023-05-10T10:18:02;98504.03;;;19.25;34.29
76050;BME280;64967;50.234;19.224;2023-05-10T10:20:33;98502.22;;;19.63;38.50
76050;BME280;64967;50.234;19.224;2023-05-10T10:23:00;98508.41;;;19.85;33.47
76050;BME280;64967;50.234;19.224;2023-05-10T10:25:27;98498.31;;;19.95;34.18
76050;BME280;64967;50.234;19.224;2023-05-10T10:30:42;98498.22;;;20.22;32.30
76050;BME280;64967;50.234;19.224;2023-05-10T10:33:39;98490.88;;;19.91;32.35
76050;BME280;64967;50.234;19.224;2023-05-10T10:36:07;98498.47;;;19.79;34.69
76050;BME280;64967;50.234;19.224;2023-05-10T10:41:35;98488.03;;;20.18;34.49
76050;BME280;64967;50.234;19.224;2023-05-10T10:52:13;98474.69;;;20.31;31.08
76050;BME280;64967;50.234;19.224;2023-05-10T10:54:49;98472.53;;;19.96;33.96
76050;BME280;64967;50.234;19.224;2023-05-10T10:57:18;98467.84;;;19.92;30.79
76050;BME280;64967;50.234;19.224;2023-05-10T10:59:46;98460.88;;;20.16;33.29
76050;BME280;64967;50.234;19.224;2023-05-10T11:02:33;98464.06;;;19.98;34.17
76050;BME280;64967;50.234;19.224;2023-05-10T11:05:25;98467.59;;;20.40;36.20
76050;BME280;64967;50.234;19.224;2023-05-10T11:10:21;98464.72;;;20.20;33.22
76050;BME280;64967;50.234;19.224;2023-05-10T11:13:34;98456.25;;;19.80;32.47
76050;BME280;64967;50.234;19.224;2023-05-10T11:18:40;98436.91;;;19.65;33.35
76050;BME280;64967;50.234;19.224;2023-05-10T11:21:09;98450.78;;;19.85;33.69
76050;BME280;64967;50.234;19.224;2023-05-10T11:26:11;98454.34;;;19.48;37.32
76050;BME280;64967;50.234;19.224;2023-05-10T11:28:43;98449.66;;;19.17;36.11
76050;BME280;64967;50.234;19.224;2023-05-10T11:31:10;98434.97;;;18.75;33.70
76050;BME280;64967;50.234;19.224;2023-05-10T11:36:18;98444.06;;;19.34;35.57
76050;BME280;64967;50.234;19.224;2023-05-10T11:38:46;98446.56;;;19.67;35.52
76050;BME280;64967;50.234;19.224;2023-05-10T11:41:13;98439.44;;;19.39;33.65
76050;BME280;64967;50.234;19.224;2023-05-10T11:43:41;98417.25;;;19.09;35.73
76050;BME280;64967;50.234;19.224;2023-05-10T11:46:11;98441.53;;;19.59;35.80
76050;BME280;64967;50.234;19.224;2023-05-10T11:48:40;98446.44;;;19.89;33.94
76050;BME280;64967;50.234;19.224;2023-05-10T11:51:10;98415.50;;;19.62;33.94
76050;BME280;64967;50.234;19.224;2023-05-10T11:53:38;98442.56;;;19.85;33.97
76050;BME280;64967;50.234;19.224;2023-05-10T11:56:06;98441.81;;;19.94;33.53
76050;BME280;64967;50.234;19.224;2023-05-10T11:58:34;98436.16;;;20.16;33.63
76050;BME280;64967;50.234;19.224;2023-05-10T12:01:03;98441.84;;;20.04;33.71
76050;BME280;64967;50.234;19.224;2023-05-10T12:03:31;98432.63;;;19.79;31.50
76050;BME280;64967;50.234;19.224;2023-05-10T12:06:00;98432.75;;;19.94;33.78
76050;BME280;64967;50.234;19.224;2023-05-10T12:08:29;98437.88;;;19.80;34.31
76050;BME280;64967;50.234;19.224;2023-05-10T12:11:08;98446.22;;;19.58;33.52
76050;BME280;64967;50.234;19.224;2023-05-10T12:13:41;98442.19;;;19.39;36.91
76050;BME280;64967;50.234;19.224;2023-05-10T12:16:19;98437.44;;;19.30;35.75
76050;BME280;64967;50.234;19.224;2023-05-10T12:18:51;98436.03;;;19.54;35.53
76050;BME280;64967;50.234;19.224;2023-05-10T12:21:20;98435.34;;;19.74;35.45
76050;BME280;64967;50.234;19.224;2023-05-10T12:23:52;98439.75;;;19.43;35.76
76050;BME280;64967;50.234;19.224;2023-05-10T12:26:23;98439.03;;;18.94;35.74
76050;BME280;64967;50.234;19.224;2023-05-10T12:28:52;98432.25;;;19.33;35.37
76050;BME280;64967;50.234;19.224;2023-05-10T12:31:19;98428.94;;;19.58;35.21
76050;BME280;64967;50.234;19.224;2023-05-10T12:33:46;98416.50;;;19.87;34.05
76050;BME280;64967;50.234;19.224;2023-05-10T12:36:16;98437.78;;;20.12;34.33
76050;BME280;64967;50.234;19.224;2023-05-10T12:38:45;98418.19;;;19.93;34.33
76050;BME280;64967;50.234;19.224;2023-05-10T12:41:16;98432.19;;;19.97;33.70
76050;BME280;64967;50.234;19.224;2023-05-10T12:43:44;98418.53;;;20.07;35.50
76050;BME280;64967;50.234;19.224;2023-05-10T12:46:16;98430.41;;;20.23;33.93
76050;BME280;64967;50.234;19.224;2023-05-10T12:48:44;98419.19;;;20.29;36.10
76050;BME280;64967;50.234;19.224;2023-05-10T12:51:13;98421.91;;;20.24;36.03
76050;BME280;64967;50.234;19.224;2023-05-10T12:53:42;98412.28;;;20.17;33.45
76050;BME280;64967;50.234;19.224;2023-05-10T12:56:12;98414.22;;;20.21;34.67
76050;BME280;64967;50.234;19.224;2023-05-10T12:58:39;98423.53;;;20.20;33.55
76050;BME280;64967;50.234;19.224;2023-05-10T13:01:06;98420.88;;;20.30;32.96
76050;BME280;64967;50.234;19.224;2023-05-10T13:03:33;98402.22;;;20.37;34.92
76050;BME280;64967;50.234;19.224;2023-05-10T13:06:00;98412.69;;;20.51;32.13
76050;BME280;64967;50.234;19.224;2023-05-10T13:08:27;98411.28;;;20.38;34.59
76050;BME280;64967;50.234;19.224;2023-05-10T13:11:00;98410.44;;;20.32;32.33
76050;BME280;64967;50.234;19.224;2023-05-10T13:13:27;98407.22;;;20.51;33.87
76050;BME280;64967;50.234;19.224;2023-05-10T13:15:54;98398.31;;;20.28;32.37
76050;BME280;64967;50.234;19.224;2023-05-10T13:18:20;98397.56;;;20.38;33.64
76050;BME280;64967;50.234;19.224;2023-05-10T13:20:48;98398.91;;;20.30;31.97
76050;BME280;64967;50.234;19.224;2023-05-10T13:23:16;98396.47;;;20.39;32.97
76050;BME280;64967;50.234;19.224;2023-05-10T13:25:43;98393.88;;;20.22;33.61
76050;BME280;64967;50.234;19.224;2023-05-10T13:28:09;98394.78;;;19.86;34.24
76050;BME280;64967;50.234;19.224;2023-05-10T13:30:36;98380.47;;;19.74;34.80
76050;BME280;64967;50.234;19.224;2023-05-10T13:33:03;98387.25;;;20.08;31.70
76050;BME280;64967;50.234;19.224;2023-05-10T13:35:30;98381.50;;;20.15;32.39
76050;BME280;64967;50.234;19.224;2023-05-10T13:37:57;98360.09;;;20.17;32.27
76050;BME280;64967;50.234;19.224;2023-05-10T13:40:24;98384.00;;;20.16;34.07
76050;BME280;64967;50.234;19.224;2023-05-10T13:42:51;98381.78;;;20.18;33.71
76050;BME280;64967;50.234;19.224;2023-05-10T13:45:19;98376.56;;;20.12;33.31
76050;BME280;64967;50.234;19.224;2023-05-10T13:47:46;98378.69;;;19.99;33.54